createdAt,value
2017-04-05T00:00:00.927Z,7.97
2017-04-05T00:00:41.472Z,7.97
2017-04-05T00:01:22.004Z,7.93
2017-04-05T00:02:02.537Z,7.97
2017-04-05T00:02:43.071Z,7.93
2017-04-05T00:03:23.624Z,8
2017-04-05T00:04:04.143Z,8.04
2017-04-05T00:04:44.681Z,7.93
2017-04-05T00:05:25.215Z,8.01
2017-04-05T00:06:05.747Z,8.02
2017-04-05T00:06:46.277Z,7.9
2017-04-05T00:07:26.815Z,7.9
2017-04-05T00:08:07.342Z,7.92
2017-04-05T00:08:47.876Z,7.93
2017-04-05T00:09:28.399Z,7.89
2017-04-05T00:10:08.943Z,7.9
2017-04-05T00:10:49.478Z,7.95
2017-04-05T00:11:30.015Z,7.95
2017-04-05T00:12:10.546Z,7.87
2017-04-05T00:12:51.087Z,7.93
2017-04-05T00:13:31.614Z,7.95
2017-04-05T00:14:12.142Z,7.95
2017-04-05T00:14:52.682Z,7.92
2017-04-05T00:15:33.219Z,7.95
2017-04-05T00:16:13.750Z,7.93
2017-04-05T00:16:54.280Z,7.98
2017-04-05T00:17:34.815Z,7.95
2017-04-05T00:18:15.350Z,7.92
2017-04-05T00:18:55.885Z,7.9
2017-04-05T00:19:36.426Z,7.86
2017-04-05T00:20:16.966Z,7.8
2017-04-05T00:20:57.503Z,7.79
2017-04-05T00:21:38.019Z,7.75
2017-04-05T00:22:18.549Z,7.77
2017-04-05T00:22:59.079Z,7.9
2017-04-05T00:23:39.636Z,7.95
2017-04-05T00:24:20.180Z,7.9
2017-04-05T00:25:00.705Z,7.93
2017-04-05T00:25:41.230Z,7.92
2017-04-05T00:26:21.767Z,7.85
2017-04-05T00:27:02.303Z,7.83
2017-04-05T00:27:42.837Z,7.86
2017-04-05T00:28:23.379Z,7.82
2017-04-05T00:29:03.914Z,7.8
2017-04-05T00:29:44.433Z,7.77
2017-04-05T00:30:24.959Z,7.74
2017-04-05T00:31:05.493Z,7.77
2017-04-05T00:31:46.030Z,7.71
2017-04-05T00:32:26.563Z,7.75
2017-04-05T00:33:07.097Z,7.75
2017-04-05T00:33:47.631Z,7.74
2017-04-05T00:34:28.161Z,7.75
2017-04-05T00:35:08.757Z,7.77
2017-04-05T00:35:49.283Z,7.77
2017-04-05T00:36:29.817Z,7.75
2017-04-05T00:37:10.351Z,7.79
2017-04-05T00:37:50.885Z,7.71
2017-04-05T00:38:31.417Z,7.67
2017-04-05T00:39:11.948Z,7.72
2017-04-05T00:39:52.478Z,7.72
2017-04-05T00:40:33.013Z,7.75
2017-04-05T00:41:13.542Z,7.68
2017-04-05T00:41:54.074Z,7.71
2017-04-05T00:42:34.609Z,7.64
2017-04-05T00:43:15.135Z,7.67
2017-04-05T00:43:55.663Z,7.63
2017-04-05T00:44:36.201Z,7.64
2017-04-05T00:45:16.729Z,7.61
2017-04-05T00:45:57.257Z,7.6
2017-04-05T00:46:37.786Z,7.61
2017-04-05T00:47:18.317Z,7.69
2017-04-05T00:47:58.856Z,7.6
2017-04-05T00:48:39.393Z,7.6
2017-04-05T00:49:19.928Z,7.58
2017-04-05T00:50:00.460Z,7.53
2017-04-05T00:50:40.987Z,7.6
2017-04-05T00:51:21.519Z,7.52
2017-04-05T00:52:02.056Z,7.52
2017-04-05T00:52:42.590Z,7.48
2017-04-05T00:53:23.124Z,7.6
2017-04-05T00:54:03.664Z,7.48
2017-04-05T00:54:44.198Z,7.45
2017-04-05T00:55:24.724Z,7.42
2017-04-05T00:56:05.255Z,7.45
2017-04-05T00:56:45.791Z,7.45
2017-04-05T00:57:26.326Z,7.32
2017-04-05T00:58:06.862Z,7.4
2017-04-05T00:58:47.393Z,7.3
2017-04-05T00:59:27.923Z,7.34
2017-04-05T01:00:08.463Z,7.35
2017-04-05T01:00:49.004Z,7.3
2017-04-05T01:01:29.531Z,7.3
2017-04-05T01:02:10.067Z,7.35
2017-04-05T01:02:50.597Z,7.31
2017-04-05T01:03:31.129Z,7.34
2017-04-05T01:04:11.667Z,7.31
2017-04-05T01:04:52.203Z,7.32
2017-04-05T01:05:32.743Z,7.27
2017-04-05T01:06:13.278Z,7.17
2017-04-05T01:06:53.803Z,7.23
2017-04-05T01:07:34.335Z,7.23
2017-04-05T01:08:14.873Z,7.17
2017-04-05T01:08:55.405Z,7.25
2017-04-05T01:09:35.941Z,7.27
2017-04-05T01:10:16.477Z,7.28
2017-04-05T01:10:57.004Z,7.24
2017-04-05T01:11:37.521Z,7.24
2017-04-05T01:12:18.072Z,7.28
2017-04-05T01:12:58.609Z,7.27
2017-04-05T01:13:39.141Z,7.27
2017-04-05T01:14:19.676Z,7.27
2017-04-05T01:15:00.209Z,7.2
2017-04-05T01:15:40.744Z,7.31
2017-04-05T01:16:21.285Z,7.1
2017-04-05T01:17:01.825Z,7.28
2017-04-05T01:17:42.367Z,7.17
2017-04-05T01:18:22.902Z,7.15
2017-04-05T01:19:03.435Z,7.13
2017-04-05T01:19:43.969Z,7.16
2017-04-05T01:20:24.493Z,7.16
2017-04-05T01:21:05.024Z,7.12
2017-04-05T01:21:45.566Z,7.24
2017-04-05T01:22:26.098Z,7.2
2017-04-05T01:23:06.632Z,7.16
2017-04-05T01:23:47.163Z,7.2
2017-04-05T01:24:27.699Z,7.24
2017-04-05T01:25:08.232Z,7.17
2017-04-05T01:25:48.768Z,7.2
2017-04-05T01:26:29.304Z,7.15
2017-04-05T01:27:09.836Z,7.17
2017-04-05T01:27:50.368Z,7.2
2017-04-05T01:28:30.904Z,7.17
2017-04-05T01:29:11.441Z,7.13
2017-04-05T01:29:51.972Z,7.17
2017-04-05T01:30:32.504Z,7.13
2017-04-05T01:31:13.046Z,7.23
2017-04-05T01:31:53.580Z,7.17
2017-04-05T01:32:34.110Z,7.15
2017-04-05T01:33:14.649Z,7.13
2017-04-05T01:33:55.183Z,7.09
2017-04-05T01:34:35.723Z,7.09
2017-04-05T01:35:16.255Z,7.05
2017-04-05T01:35:56.784Z,7.02
2017-04-05T01:36:37.318Z,6.98
2017-04-05T01:37:17.850Z,7.07
2017-04-05T01:37:58.385Z,7.07
2017-04-05T01:38:38.919Z,7.09
2017-04-05T01:39:19.457Z,7.03
2017-04-05T01:39:59.988Z,7.07
2017-04-05T01:40:40.565Z,7.09
2017-04-05T01:41:21.098Z,7.09
2017-04-05T01:42:01.631Z,7.03
2017-04-05T01:42:42.155Z,7.06
2017-04-05T01:43:22.691Z,6.97
2017-04-05T01:44:03.222Z,6.94
2017-04-05T01:44:43.762Z,6.94
2017-04-05T01:45:24.302Z,6.98
2017-04-05T01:46:04.827Z,6.98
2017-04-05T01:46:45.361Z,6.92
2017-04-05T01:47:25.892Z,6.94
2017-04-05T01:48:06.431Z,6.88
2017-04-05T01:48:46.958Z,6.88
2017-04-05T01:49:27.493Z,6.88
2017-04-05T01:50:08.024Z,6.88
2017-04-05T01:50:48.554Z,6.97
2017-04-05T01:51:29.090Z,6.87
2017-04-05T01:52:09.625Z,6.84
2017-04-05T01:52:50.173Z,6.87
2017-04-05T01:53:30.713Z,6.84
2017-04-05T01:54:11.246Z,6.92
2017-04-05T01:54:51.786Z,6.76
2017-04-05T01:55:32.315Z,6.89
2017-04-05T01:56:12.849Z,6.89
2017-04-05T01:56:53.381Z,6.79
2017-04-05T01:57:33.914Z,6.89
2017-04-05T01:58:14.439Z,6.8
2017-04-05T01:58:54.977Z,6.79
2017-04-05T01:59:35.506Z,6.73
2017-04-05T02:00:16.044Z,6.8
2017-04-05T02:00:56.577Z,6.81
2017-04-05T02:01:37.111Z,6.7
2017-04-05T02:02:17.641Z,6.73
2017-04-05T02:02:58.177Z,6.76
2017-04-05T02:03:38.708Z,6.73
2017-04-05T02:04:19.247Z,6.73
2017-04-05T02:04:59.780Z,6.79
2017-04-05T02:05:40.314Z,6.67
2017-04-05T02:06:20.842Z,6.79
2017-04-05T02:07:01.373Z,6.77
2017-04-05T02:07:41.912Z,6.71
2017-04-05T02:08:22.444Z,6.69
2017-04-05T02:09:02.978Z,6.67
2017-04-05T02:09:43.515Z,6.67
2017-04-05T02:10:24.048Z,6.55
2017-04-05T02:11:04.584Z,6.69
2017-04-05T02:11:45.116Z,6.67
2017-04-05T02:12:25.654Z,6.64
2017-04-05T02:13:06.185Z,6.56
2017-04-05T02:13:46.716Z,6.55
2017-04-05T02:14:27.247Z,6.61
2017-04-05T02:15:07.778Z,6.69
2017-04-05T02:15:48.315Z,6.66
2017-04-05T02:16:28.856Z,6.61
2017-04-05T02:17:09.388Z,6.61
2017-04-05T02:17:49.919Z,6.62
2017-04-05T02:18:30.451Z,6.61
2017-04-05T02:19:10.981Z,6.55
2017-04-05T02:19:51.520Z,6.56
2017-04-05T02:20:32.065Z,6.52
2017-04-05T02:21:12.590Z,6.44
2017-04-05T02:21:53.125Z,6.52
2017-04-05T02:22:33.652Z,6.4
2017-04-05T02:23:14.185Z,6.44
2017-04-05T02:23:54.721Z,6.37
2017-04-05T02:24:35.262Z,6.3
2017-04-05T02:25:15.796Z,6.33
2017-04-05T02:25:56.332Z,6.3
2017-04-05T02:26:36.864Z,6.3
2017-04-05T02:27:17.408Z,6.36
2017-04-05T02:27:57.929Z,6.21
2017-04-05T02:28:38.464Z,6.3
2017-04-05T02:29:18.995Z,6.27
2017-04-05T02:29:59.528Z,6.22
2017-04-05T02:30:40.061Z,6.27
2017-04-05T02:31:20.590Z,6.27
2017-04-05T02:32:01.126Z,6.25
2017-04-05T02:32:41.657Z,6.14
2017-04-05T02:33:22.195Z,6.25
2017-04-05T02:34:02.729Z,6.22
2017-04-05T02:34:43.262Z,6.19
2017-04-05T02:35:23.800Z,6.09
2017-04-05T02:36:04.323Z,6.18
2017-04-05T02:36:44.856Z,6.18
2017-04-05T02:37:25.387Z,6.14
2017-04-05T02:38:05.921Z,6.19
2017-04-05T02:38:46.458Z,6.22
2017-04-05T02:39:26.993Z,6.18
2017-04-05T02:40:07.522Z,6.22
2017-04-05T02:40:48.055Z,6.21
2017-04-05T02:41:28.588Z,6.19
2017-04-05T02:42:09.117Z,6.18
2017-04-05T02:42:49.647Z,6.06
2017-04-05T02:43:30.189Z,6.18
2017-04-05T02:44:10.726Z,6.18
2017-04-05T02:44:51.263Z,6.18
2017-04-05T02:45:31.798Z,6.18
2017-04-05T02:46:12.332Z,6.21
2017-04-05T02:46:52.862Z,6.15
2017-04-05T02:47:33.390Z,6.17
2017-04-05T02:48:13.927Z,6.17
2017-04-05T02:48:54.456Z,6.19
2017-04-05T02:49:34.991Z,6.17
2017-04-05T02:50:15.523Z,6.12
2017-04-05T02:50:56.103Z,6.08
2017-04-05T02:51:36.628Z,6
2017-04-05T02:52:17.165Z,6.01
2017-04-05T02:52:57.706Z,6.04
2017-04-05T02:53:38.233Z,5.97
2017-04-05T02:54:18.769Z,5.97
2017-04-05T02:54:59.295Z,6.08
2017-04-05T02:55:39.820Z,5.93
2017-04-05T02:56:20.355Z,6
2017-04-05T02:57:00.894Z,5.93
2017-04-05T02:57:41.434Z,6.03
2017-04-05T02:58:21.969Z,6
2017-04-05T02:59:02.502Z,6.01
2017-04-05T02:59:43.040Z,6.03
2017-04-05T03:00:23.562Z,6
2017-04-05T03:01:04.099Z,6
2017-04-05T03:01:44.637Z,5.93
2017-04-05T03:02:25.170Z,6
2017-04-05T03:03:05.698Z,6
2017-04-05T03:03:46.233Z,6.01
2017-04-05T03:04:26.766Z,6
2017-04-05T03:05:07.301Z,5.96
2017-04-05T03:05:47.848Z,6.06
2017-04-05T03:06:28.382Z,6.09
2017-04-05T03:07:08.919Z,6.11
2017-04-05T03:07:49.454Z,5.96
2017-04-05T03:08:29.986Z,5.96
2017-04-05T03:09:10.522Z,5.96
2017-04-05T03:09:51.053Z,6.06
2017-04-05T03:10:31.584Z,6.01
2017-04-05T03:11:12.176Z,6.01
2017-04-05T03:11:52.710Z,6.01
2017-04-05T03:12:33.244Z,6.03
2017-04-05T03:13:13.784Z,6.04
2017-04-05T03:13:54.300Z,6
2017-04-05T03:14:34.811Z,5.94
2017-04-05T03:15:15.326Z,6.01
2017-04-05T03:15:55.922Z,6.06
2017-04-05T03:16:36.441Z,5.96
2017-04-05T03:17:17.013Z,6.09
2017-04-05T03:17:57.510Z,5.99
2017-04-05T03:18:38.052Z,5.99
2017-04-05T03:19:18.556Z,6.04
2017-04-05T03:19:59.057Z,6.08
2017-04-05T03:20:39.600Z,6.03
2017-04-05T03:21:20.116Z,6.04
2017-04-05T03:22:00.963Z,5.96
2017-04-05T03:22:43.369Z,5.97
2017-04-05T03:23:25.743Z,6.01
2017-04-05T03:24:06.513Z,6.03
2017-04-05T03:24:47.043Z,6.08
2017-04-05T03:25:27.568Z,6.04
2017-04-05T03:26:08.086Z,5.97
2017-04-05T03:26:48.596Z,6.06
2017-04-05T03:27:29.107Z,6
2017-04-05T03:28:09.646Z,6
2017-04-05T03:28:50.156Z,6
2017-04-05T03:29:30.703Z,5.97
2017-04-05T03:30:11.220Z,6.06
2017-04-05T03:30:51.754Z,6
2017-04-05T03:31:32.281Z,6.03
2017-04-05T03:32:12.794Z,6.01
2017-04-05T03:32:53.286Z,6.08
2017-04-05T03:33:33.800Z,5.96
2017-04-05T03:34:14.307Z,6.06
2017-04-05T03:34:54.850Z,5.99
2017-04-05T03:35:35.369Z,5.97
2017-04-05T03:36:15.913Z,5.97
2017-04-05T03:36:56.440Z,5.96
2017-04-05T03:37:36.973Z,6.01
2017-04-05T03:38:17.474Z,5.96
2017-04-05T03:38:57.989Z,6.01
2017-04-05T03:39:38.502Z,5.94
2017-04-05T03:40:19.036Z,6.08
2017-04-05T03:40:59.572Z,6.01
2017-04-05T03:41:40.112Z,6.03
2017-04-05T03:42:20.662Z,6.06
2017-04-05T03:43:01.241Z,5.97
2017-04-05T03:43:41.758Z,6.08
2017-04-05T03:44:22.308Z,6.01
2017-04-05T03:45:02.788Z,6.03
2017-04-05T03:45:43.285Z,6.01
2017-04-05T03:46:23.839Z,6.11
2017-04-05T03:47:04.370Z,6.04
2017-04-05T03:47:44.878Z,6
2017-04-05T03:48:25.443Z,6.11
2017-04-05T03:49:05.941Z,6
2017-04-05T03:49:46.496Z,6.06
2017-04-05T03:50:27.034Z,6
2017-04-05T03:51:07.569Z,6.06
2017-04-05T03:51:48.096Z,6.08
2017-04-05T03:52:28.623Z,6.12
2017-04-05T03:53:09.181Z,6.03
2017-04-05T03:53:49.724Z,5.96
2017-04-05T03:54:30.260Z,5.99
2017-04-05T03:55:10.823Z,5.99
2017-04-05T03:55:51.353Z,6.06
2017-04-05T03:56:31.881Z,6.01
2017-04-05T03:57:12.414Z,6.08
2017-04-05T03:57:52.947Z,6.03
2017-04-05T03:58:33.477Z,5.96
2017-04-05T03:59:13.999Z,5.91
2017-04-05T03:59:54.531Z,5.94
2017-04-05T04:00:35.138Z,5.97
2017-04-05T04:01:15.683Z,6
2017-04-05T04:01:56.207Z,5.91
2017-04-05T04:02:36.720Z,5.97
2017-04-05T04:03:17.254Z,5.91
2017-04-05T04:03:57.799Z,5.86
2017-04-05T04:04:38.364Z,5.89
2017-04-05T04:05:18.908Z,5.86
2017-04-05T04:05:59.441Z,5.9
2017-04-05T04:06:39.966Z,5.86
2017-04-05T04:07:20.478Z,5.83
2017-04-05T04:08:01.020Z,5.85
2017-04-05T04:08:41.557Z,5.82
2017-04-05T04:09:22.078Z,5.75
2017-04-05T04:10:02.602Z,5.78
2017-04-05T04:10:43.154Z,5.83
2017-04-05T04:11:23.708Z,5.76
2017-04-05T04:12:04.232Z,5.78
2017-04-05T04:12:44.767Z,5.75
2017-04-05T04:13:25.309Z,5.76
2017-04-05T04:14:05.848Z,5.71
2017-04-05T04:14:46.401Z,5.76
2017-04-05T04:15:26.938Z,5.72
2017-04-05T04:16:07.514Z,5.75
2017-04-05T04:16:48.043Z,5.75
2017-04-05T04:17:28.576Z,5.75
2017-04-05T04:18:09.112Z,5.76
2017-04-05T04:18:49.635Z,5.78
2017-04-05T04:19:30.163Z,5.76
2017-04-05T04:20:10.714Z,5.76
2017-04-05T04:20:51.232Z,5.79
2017-04-05T04:21:31.753Z,5.75
2017-04-05T04:22:12.281Z,5.71
2017-04-05T04:22:52.815Z,5.67
2017-04-05T04:23:33.355Z,5.74
2017-04-05T04:24:13.896Z,5.67
2017-04-05T04:24:54.475Z,5.68
2017-04-05T04:25:35.045Z,5.65
2017-04-05T04:26:15.575Z,5.65
2017-04-05T04:26:56.123Z,5.72
2017-04-05T04:27:36.655Z,5.72
2017-04-05T04:28:17.189Z,5.64
2017-04-05T04:28:57.732Z,5.68
2017-04-05T04:29:38.261Z,5.68
2017-04-05T04:30:18.790Z,5.58
2017-04-05T04:30:59.385Z,5.64
2017-04-05T04:31:39.914Z,5.58
2017-04-05T04:32:20.438Z,5.68
2017-04-05T04:33:00.988Z,5.6
2017-04-05T04:33:41.527Z,5.65
2017-04-05T04:34:22.064Z,5.61
2017-04-05T04:35:02.626Z,5.63
2017-04-05T04:35:43.180Z,5.63
2017-04-05T04:36:23.711Z,5.54
2017-04-05T04:37:04.239Z,5.56
2017-04-05T04:37:44.781Z,5.48
2017-04-05T04:38:25.304Z,5.58
2017-04-05T04:39:05.834Z,5.49
2017-04-05T04:39:46.373Z,5.48
2017-04-05T04:40:26.914Z,5.43
2017-04-05T04:41:08.292Z,5.54
2017-04-05T04:41:48.831Z,5.48
2017-04-05T04:42:29.360Z,5.45
2017-04-05T04:43:09.876Z,5.4
2017-04-05T04:43:50.493Z,5.46
2017-04-05T04:44:31.033Z,5.48
2017-04-05T04:45:11.571Z,5.42
2017-04-05T04:45:52.092Z,5.46
2017-04-05T04:46:32.646Z,5.46
2017-04-05T04:47:13.161Z,5.43
2017-04-05T04:47:53.677Z,5.48
2017-04-05T04:48:34.217Z,5.51
2017-04-05T04:49:14.774Z,5.48
2017-04-05T04:49:55.309Z,5.43
2017-04-05T04:50:35.836Z,5.54
2017-04-05T04:51:16.384Z,5.39
2017-04-05T04:51:56.917Z,5.56
2017-04-05T04:52:37.437Z,5.58
2017-04-05T04:53:18.006Z,5.46
2017-04-05T04:53:58.544Z,5.42
2017-04-05T04:54:39.078Z,5.49
2017-04-05T04:55:19.621Z,5.51
2017-04-05T04:56:00.156Z,5.58
2017-04-05T04:56:40.690Z,5.53
2017-04-05T04:57:21.231Z,5.56
2017-04-05T04:58:01.759Z,5.54
2017-04-05T04:58:42.318Z,5.48
2017-04-05T04:59:22.871Z,5.56
2017-04-05T05:00:03.435Z,5.57
2017-04-05T05:00:43.984Z,5.54
2017-04-05T05:01:24.524Z,5.46
2017-04-05T05:02:05.358Z,5.56
2017-04-05T05:02:45.888Z,5.51
2017-04-05T05:03:26.413Z,5.43
2017-04-05T05:04:06.954Z,5.45
2017-04-05T05:04:47.470Z,5.49
2017-04-05T05:05:28.013Z,5.46
2017-04-05T05:06:08.555Z,5.46
2017-04-05T05:06:49.077Z,5.48
2017-04-05T05:07:29.607Z,5.48
2017-04-05T05:08:10.123Z,5.48
2017-04-05T05:08:50.660Z,5.45
2017-04-05T05:09:31.192Z,5.46
2017-04-05T05:10:11.715Z,5.49
2017-04-05T05:10:52.241Z,5.51
2017-04-05T05:11:32.787Z,5.46
2017-04-05T05:12:13.325Z,5.51
2017-04-05T05:12:53.840Z,5.46
2017-04-05T05:13:34.349Z,5.49
2017-04-05T05:14:14.889Z,5.43
2017-04-05T05:14:55.425Z,5.46
2017-04-05T05:15:35.968Z,5.42
2017-04-05T05:16:16.482Z,5.43
2017-04-05T05:16:57.018Z,5.45
2017-04-05T05:17:37.545Z,5.48
2017-04-05T05:18:18.072Z,5.43
2017-04-05T05:18:58.602Z,5.46
2017-04-05T05:19:39.139Z,5.42
2017-04-05T05:20:19.661Z,5.46
2017-04-05T05:21:00.192Z,5.48
2017-04-05T05:21:40.726Z,5.42
2017-04-05T05:22:21.260Z,5.42
2017-04-05T05:23:01.809Z,5.45
2017-04-05T05:23:42.340Z,5.39
2017-04-05T05:24:22.853Z,5.45
2017-04-05T05:25:03.385Z,5.39
2017-04-05T05:25:43.919Z,5.42
2017-04-05T05:26:24.453Z,5.4
2017-04-05T05:27:04.983Z,5.45
2017-04-05T05:27:45.517Z,5.4
2017-04-05T05:28:26.067Z,5.39
2017-04-05T05:29:06.560Z,5.42
2017-04-05T05:29:47.085Z,5.36
2017-04-05T05:30:27.603Z,5.4
2017-04-05T05:31:08.134Z,5.42
2017-04-05T05:31:48.654Z,5.4
2017-04-05T05:32:29.198Z,5.38
2017-04-05T05:33:09.753Z,5.4
2017-04-05T05:33:50.305Z,5.46
2017-04-05T05:34:30.822Z,5.43
2017-04-05T05:35:11.357Z,5.46
2017-04-05T05:35:51.878Z,5.42
2017-04-05T05:36:32.410Z,5.43
2017-04-05T05:37:12.967Z,5.48
2017-04-05T05:37:53.525Z,5.46
2017-04-05T05:38:34.107Z,5.43
2017-04-05T05:39:14.659Z,5.42
2017-04-05T05:39:55.167Z,5.45
2017-04-05T05:40:35.679Z,5.39
2017-04-05T05:41:16.206Z,5.36
2017-04-05T05:41:56.738Z,5.31
2017-04-05T05:42:37.287Z,5.35
2017-04-05T05:43:17.859Z,5.38
2017-04-05T05:43:58.508Z,5.33
2017-04-05T05:44:39.042Z,5.33
2017-04-05T05:45:19.588Z,5.33
2017-04-05T05:46:00.118Z,5.31
2017-04-05T05:46:40.625Z,5.4
2017-04-05T05:47:21.307Z,5.38
2017-04-05T05:48:02.042Z,5.31
2017-04-05T05:48:42.573Z,5.31
2017-04-05T05:49:23.106Z,5.35
2017-04-05T05:50:03.638Z,5.31
2017-04-05T05:50:44.180Z,5.36
2017-04-05T05:51:24.733Z,5.36
2017-04-05T05:52:05.255Z,5.38
2017-04-05T05:52:45.785Z,5.46
2017-04-05T05:53:26.333Z,5.51
2017-04-05T05:54:06.938Z,5.53
2017-04-05T05:54:47.452Z,5.45
2017-04-05T05:55:27.970Z,5.42
2017-04-05T05:56:08.535Z,5.54
2017-04-05T05:56:49.049Z,5.58
2017-04-05T05:57:29.578Z,5.57
2017-04-05T05:58:10.083Z,5.58
2017-04-05T05:58:50.618Z,5.56
2017-04-05T05:59:31.147Z,5.58
2017-04-05T06:00:11.665Z,5.56
2017-04-05T06:00:52.193Z,5.54
2017-04-05T06:01:32.722Z,5.58
2017-04-05T06:02:13.268Z,5.51
2017-04-05T06:02:53.780Z,5.64
2017-04-05T06:03:34.302Z,5.6
2017-04-05T06:04:14.834Z,5.65
2017-04-05T06:04:55.373Z,5.61
2017-04-05T06:05:35.899Z,5.64
2017-04-05T06:06:16.453Z,5.64
2017-04-05T06:06:56.982Z,5.67
2017-04-05T06:07:37.511Z,5.65
2017-04-05T06:08:18.035Z,5.65
2017-04-05T06:08:58.578Z,5.67
2017-04-05T06:09:39.141Z,5.71
2017-04-05T06:10:19.654Z,5.68
2017-04-05T06:11:00.243Z,5.74
2017-04-05T06:11:40.748Z,5.75
2017-04-05T06:12:21.260Z,5.72
2017-04-05T06:13:01.789Z,5.81
2017-04-05T06:13:42.325Z,5.81
2017-04-05T06:14:22.851Z,5.72
2017-04-05T06:15:03.379Z,5.89
2017-04-05T06:15:43.910Z,5.83
2017-04-05T06:16:24.435Z,5.86
2017-04-05T06:17:04.954Z,5.85
2017-04-05T06:17:45.485Z,5.81
2017-04-05T06:18:26.026Z,5.83
2017-04-05T06:19:06.581Z,5.93
2017-04-05T06:19:47.111Z,5.94
2017-04-05T06:20:27.636Z,6.01
2017-04-05T06:21:08.182Z,5.91
2017-04-05T06:21:48.720Z,5.97
2017-04-05T06:22:29.257Z,5.97
2017-04-05T06:23:09.805Z,6.04
2017-04-05T06:23:50.339Z,6.03
2017-04-05T06:24:30.871Z,5.99
2017-04-05T06:25:11.463Z,5.96
2017-04-05T06:25:51.978Z,6.08
2017-04-05T06:26:32.526Z,6.12
2017-04-05T06:27:13.051Z,6.06
2017-04-05T06:27:53.604Z,6.12
2017-04-05T06:28:34.143Z,6.11
2017-04-05T06:29:14.675Z,6.17
2017-04-05T06:29:55.241Z,6.21
2017-04-05T06:30:35.788Z,6.18
2017-04-05T06:31:16.327Z,6.21
2017-04-05T06:31:56.860Z,6.21
2017-04-05T06:32:37.396Z,6.19
2017-04-05T06:33:17.929Z,6.31
2017-04-05T06:33:58.454Z,6.3
2017-04-05T06:34:38.992Z,6.36
2017-04-05T06:35:19.524Z,6.3
2017-04-05T06:36:00.067Z,6.36
2017-04-05T06:36:40.606Z,6.37
2017-04-05T06:37:21.140Z,6.49
2017-04-05T06:38:01.669Z,6.48
2017-04-05T06:38:42.200Z,6.51
2017-04-05T06:39:22.749Z,6.52
2017-04-05T06:40:03.292Z,6.62
2017-04-05T06:40:43.821Z,6.55
2017-04-05T06:41:24.372Z,6.69
2017-04-05T06:42:04.896Z,6.67
2017-04-05T06:42:45.428Z,6.74
2017-04-05T06:43:25.961Z,6.73
2017-04-05T06:44:06.491Z,6.87
2017-04-05T06:44:47.008Z,6.81
2017-04-05T06:45:27.543Z,6.8
2017-04-05T06:46:08.089Z,6.91
2017-04-05T06:46:48.607Z,6.97
2017-04-05T06:47:29.158Z,6.95
2017-04-05T06:48:09.664Z,6.95
2017-04-05T06:48:50.171Z,6.97
2017-04-05T06:49:30.722Z,6.98
2017-04-05T06:50:11.223Z,7.09
2017-04-05T06:50:51.759Z,7.05
2017-04-05T06:51:32.301Z,7.07
2017-04-05T06:52:12.858Z,7.12
2017-04-05T06:52:53.375Z,7.23
2017-04-05T06:53:35.798Z,7.15
2017-04-05T06:54:16.315Z,7.15
2017-04-05T06:54:56.890Z,7.25
2017-04-05T06:55:37.417Z,7.16
2017-04-05T06:56:17.957Z,7.27
2017-04-05T06:56:58.497Z,7.23
2017-04-05T06:57:39.037Z,7.17
2017-04-05T06:58:19.572Z,7.31
2017-04-05T06:59:00.107Z,7.31
2017-04-05T06:59:40.641Z,7.32
2017-04-05T07:00:21.178Z,7.35
2017-04-05T07:01:01.709Z,7.45
2017-04-05T07:01:42.248Z,7.46
2017-04-05T07:02:22.782Z,7.49
2017-04-05T07:03:03.319Z,7.53
2017-04-05T07:03:43.846Z,7.52
2017-04-05T07:04:24.379Z,7.58
2017-04-05T07:05:04.912Z,7.6
2017-04-05T07:05:45.451Z,7.71
2017-04-05T07:06:25.981Z,7.68
2017-04-05T07:07:06.521Z,7.67
2017-04-05T07:07:47.046Z,7.72
2017-04-05T07:08:27.584Z,7.77
2017-04-05T07:09:08.124Z,7.77
2017-04-05T07:09:48.653Z,7.77
2017-04-05T07:10:29.192Z,7.82
2017-04-05T07:11:09.733Z,7.87
2017-04-05T07:11:50.267Z,7.8
2017-04-05T07:12:30.800Z,7.89
2017-04-05T07:13:11.351Z,7.9
2017-04-05T07:13:51.867Z,7.95
2017-04-05T07:14:32.409Z,7.98
2017-04-05T07:15:12.948Z,7.95
2017-04-05T07:15:53.485Z,7.97
2017-04-05T07:16:34.021Z,7.95
2017-04-05T07:17:14.552Z,7.98
2017-04-05T07:17:55.082Z,8.02
2017-04-05T07:18:35.621Z,7.95
2017-04-05T07:19:16.161Z,8.04
2017-04-05T07:19:56.694Z,8.04
2017-04-05T07:20:37.233Z,8.08
2017-04-05T07:21:17.767Z,8.07
2017-04-05T07:21:58.290Z,8.15
2017-04-05T07:22:38.839Z,8.15
2017-04-05T07:23:19.374Z,8.28
2017-04-05T07:23:59.915Z,8.23
2017-04-05T07:24:40.445Z,8.28
2017-04-05T07:25:20.989Z,8.23
2017-04-05T07:26:01.515Z,8.3
2017-04-05T07:26:42.052Z,8.29
2017-04-05T07:27:22.589Z,8.36
2017-04-05T07:28:03.139Z,8.37
2017-04-05T07:28:43.668Z,8.38
2017-04-05T07:29:24.203Z,8.43
2017-04-05T07:30:04.776Z,8.44
2017-04-05T07:30:45.395Z,8.52
2017-04-05T07:31:25.927Z,8.56
2017-04-05T07:32:06.458Z,8.45
2017-04-05T07:32:46.988Z,8.56
2017-04-05T07:33:27.524Z,8.62
2017-04-05T07:34:08.062Z,8.65
2017-04-05T07:34:48.596Z,8.65
2017-04-05T07:35:29.134Z,8.71
2017-04-05T07:36:09.670Z,8.8
2017-04-05T07:36:50.218Z,8.77
2017-04-05T07:37:30.753Z,8.77
2017-04-05T07:38:11.293Z,8.81
2017-04-05T07:38:51.832Z,8.8
2017-04-05T07:39:32.365Z,8.84
2017-04-05T07:40:12.885Z,8.94
2017-04-05T07:40:53.430Z,8.94
2017-04-05T07:41:33.960Z,8.87
2017-04-05T07:42:14.504Z,9.1
2017-04-05T07:42:55.033Z,9.11
2017-04-05T07:43:35.570Z,9.05
2017-04-05T07:44:16.098Z,9.1
2017-04-05T07:44:56.639Z,9.15
2017-04-05T07:45:37.178Z,9.18
2017-04-05T07:46:17.708Z,9.21
2017-04-05T07:46:58.241Z,9.31
2017-04-05T07:47:38.778Z,9.29
2017-04-05T07:48:19.313Z,9.32
2017-04-05T07:48:59.847Z,9.31
2017-04-05T07:49:40.377Z,9.42
2017-04-05T07:50:20.909Z,9.42
2017-04-05T07:51:01.447Z,9.43
2017-04-05T07:51:41.988Z,9.42
2017-04-05T07:52:22.530Z,9.39
2017-04-05T07:53:03.067Z,9.42
2017-04-05T07:53:43.598Z,9.51
2017-04-05T07:54:24.135Z,9.57
2017-04-05T07:55:04.675Z,9.5
2017-04-05T07:55:45.252Z,9.51
2017-04-05T07:56:25.787Z,9.54
2017-04-05T07:57:06.319Z,9.6
2017-04-05T07:57:46.859Z,9.68
2017-04-05T07:58:27.397Z,9.68
2017-04-05T07:59:07.933Z,9.74
2017-04-05T07:59:48.474Z,9.81
2017-04-05T08:00:29.010Z,9.78
2017-04-05T08:01:09.542Z,9.89
2017-04-05T08:01:50.080Z,9.97
2017-04-05T08:02:30.614Z,10.02
2017-04-05T08:03:11.147Z,10.05
2017-04-05T08:03:51.686Z,10.2
2017-04-05T08:04:32.229Z,10.23
2017-04-05T08:05:12.768Z,10.22
2017-04-05T08:05:53.294Z,10.32
2017-04-05T08:06:33.828Z,10.3
2017-04-05T08:07:14.364Z,10.33
2017-04-05T08:07:54.901Z,10.33
2017-04-05T08:08:35.437Z,10.42
2017-04-05T08:09:15.971Z,10.53
2017-04-05T08:09:56.499Z,10.56
2017-04-05T08:10:37.030Z,10.64
2017-04-05T08:11:17.569Z,10.63
2017-04-05T08:11:58.105Z,10.76
2017-04-05T08:12:38.639Z,10.82
2017-04-05T08:13:19.178Z,10.85
2017-04-05T08:13:59.715Z,10.89
2017-04-05T08:14:40.233Z,10.89
2017-04-05T08:15:20.783Z,10.99
2017-04-05T08:16:01.316Z,11
2017-04-05T08:16:41.858Z,10.97
2017-04-05T08:17:22.393Z,11.09
2017-04-05T08:18:02.939Z,11.1
2017-04-05T08:18:43.473Z,11.1
2017-04-05T08:19:24.006Z,11.14
2017-04-05T08:20:04.533Z,11.09
2017-04-05T08:20:45.071Z,11.03
2017-04-05T08:21:25.615Z,11.1
2017-04-05T08:22:06.154Z,11.1
2017-04-05T08:22:46.690Z,11.07
2017-04-05T08:23:27.227Z,11.09
2017-04-05T08:24:07.785Z,11.18
2017-04-05T08:24:48.325Z,11.25
2017-04-05T08:25:28.860Z,11.28
2017-04-05T08:26:09.393Z,11.28
2017-04-05T08:26:49.933Z,11.39
2017-04-05T08:27:30.469Z,11.44
2017-04-05T08:28:11.009Z,11.51
2017-04-05T08:28:51.547Z,11.7
2017-04-05T08:29:32.071Z,11.78
2017-04-05T08:30:12.614Z,11.82
2017-04-05T08:30:53.154Z,12.09
2017-04-05T08:31:33.699Z,11.99
2017-04-05T08:32:14.223Z,12.13
2017-04-05T08:32:54.757Z,12.34
2017-04-05T08:33:35.299Z,12.41
2017-04-05T08:34:15.838Z,12.6
2017-04-05T08:34:56.366Z,12.7
2017-04-05T08:35:36.908Z,12.79
2017-04-05T08:36:17.446Z,12.86
2017-04-05T08:36:57.980Z,13.04
2017-04-05T08:37:38.528Z,13.08
2017-04-05T08:38:19.065Z,13.11
2017-04-05T08:38:59.605Z,13.17
2017-04-05T08:39:40.143Z,13.25
2017-04-05T08:40:20.674Z,13.23
2017-04-05T08:41:01.210Z,13.25
2017-04-05T08:41:41.744Z,13.08
2017-04-05T08:42:22.281Z,13.03
2017-04-05T08:43:02.822Z,13.03
2017-04-05T08:43:43.359Z,12.97
2017-04-05T08:44:23.896Z,13
2017-04-05T08:45:04.427Z,13.1
2017-04-05T08:45:44.969Z,13.19
2017-04-05T08:46:25.509Z,13.15
2017-04-05T08:47:06.047Z,13.17
2017-04-05T08:47:46.587Z,13.2
2017-04-05T08:48:27.127Z,13.29
2017-04-05T08:49:07.664Z,13.33
2017-04-05T08:49:48.208Z,13.32
2017-04-05T08:50:28.747Z,13.33
2017-04-05T08:51:09.275Z,13.26
2017-04-05T08:51:49.812Z,13.19
2017-04-05T08:52:30.348Z,13.17
2017-04-05T08:53:10.892Z,13.15
2017-04-05T08:53:53.941Z,13.19
2017-04-05T08:54:34.479Z,13.17
2017-04-05T08:55:15.021Z,13.05
2017-04-05T08:55:55.553Z,13.12
2017-04-05T08:56:36.092Z,13.15
2017-04-05T08:57:16.633Z,13.17
2017-04-05T08:57:57.172Z,13.2
2017-04-05T08:58:37.707Z,13.2
2017-04-05T08:59:18.239Z,13.25
2017-04-05T08:59:58.778Z,13.26